Time;durP1;ratioP1;P1;durP2;ratioP2;P2;SDS_P1;SDS_P2;PMS_P1;PMS_P2;Temp;Humidity;BMP_temperature;BMP_pressure;BME280_temperature;BME280_humidity;BME280_pressure;Samples;Min_cycle;Max_cycle;Signal;HPM_P1;HPM_P2
2021/11/27 00:01:54;;;;;;;17.05;10.70;;;;;;;5.34;100.00;97967.69;6295307;28;20076;-71
2021/11/27 00:04:55;;;;;;;18.90;10.15;;;;;;;5.41;100.00;97960.28;6296304;28;20032;-73
2021/11/27 00:07:56;;;;;;;12.88;7.28;;;;;;;5.31;100.00;97961.91;6295119;28;20044;-71
2021/11/27 00:10:59;;;;;;;14.63;9.40;;;;;;;5.26;100.00;97967.41;6296118;28;20066;-71
2021/11/27 00:14:00;;;;;;;;;;;;;;;5.15;100.00;97964.78;6296808;28;20040;-73
2021/11/27 00:17:01;;;;;;;16.00;8.88;;;;;;;5.21;100.00;97972.09;6295024;28;19926;-72
2021/11/27 00:20:07;;;;;;;17.73;8.90;;;;;;;5.28;100.00;97980.22;6278485;28;20044;-73
2021/11/27 00:23:08;;;;;;;14.77;9.05;;;;;;;5.18;100.00;97991.22;6295031;28;20162;-72
2021/11/27 00:26:12;;;;;;;19.45;10.05;;;;;;;5.11;100.00;97997.78;6296136;28;20045;-72
2021/11/27 00:29:14;;;;;;;13.23;8.48;;;;;;;5.13;100.00;98001.09;6296330;28;20139;-71
2021/11/27 00:32:15;;;;;;;17.67;9.68;;;;;;;5.14;100.00;97999.31;6311531;28;20072;-71
2021/11/27 00:35:18;;;;;;;15.77;9.35;;;;;;;5.14;100.00;98005.31;6294970;28;20040;-72
2021/11/27 00:38:20;;;;;;;18.80;10.25;;;;;;;5.08;100.00;98013.50;6294718;28;20048;-72
2021/11/27 00:41:21;;;;;;;15.68;9.38;;;;;;;5.02;100.00;98003.59;6294448;28;20063;-71
2021/11/27 00:44:22;;;;;;;16.00;8.90;;;;;;;4.82;100.00;97992.91;6295268;28;20385;-71
2021/11/27 00:47:23;;;;;;;14.57;8.52;;;;;;;4.81;100.00;97998.19;6279716;28;20411;-73
2021/11/27 00:50:30;;;;;;;18.08;8.32;;;;;;;4.72;100.00;97996.25;6298843;28;20040;-74
2021/11/27 00:53:31;;;;;;;17.70;9.52;;;;;;;4.63;100.00;98006.28;6299179;28;20687;-74
2021/11/27 00:56:32;;;;;;;11.20;6.90;;;;;;;4.61;100.00;98009.91;6300084;28;20041;-74
2021/11/27 00:59:33;;;;;;;14.02;7.75;;;;;;;4.66;100.00;98010.41;6298833;28;20078;-71
2021/11/27 01:02:34;;;;;;;11.90;7.20;;;;;;;4.58;100.00;98023.84;6300130;28;20052;-71
2021/11/27 01:05:36;;;;;;;8.80;5.35;;;;;;;4.51;100.00;98020.06;6298830;28;20501;-73
2021/11/27 01:08:39;;;;;;;9.77;6.10;;;;;;;4.39;100.00;98026.06;6300066;28;20583;-71
2021/11/27 01:11:50;;;;;;;8.88;5.32;;;;;;;4.33;100.00;98021.31;6299873;28;20094;-71
2021/11/27 01:14:52;;;;;;;7.20;5.35;;;;;;;4.21;100.00;98022.94;6299767;28;20041;-73
2021/11/27 01:17:53;;;;;;;8.35;5.47;;;;;;;4.10;100.00;98017.66;6299561;28;20370;-73
2021/11/27 01:20:58;;;;;;;8.82;6.05;;;;;;;4.04;100.00;98013.75;6315363;28;20098;-71
2021/11/27 01:24:05;;;;;;;8.93;5.80;;;;;;;4.06;100.00;98016.22;6299674;28;20041;-71
2021/11/27 01:27:08;;;;;;;7.82;5.05;;;;;;;3.97;100.00;98028.81;6297984;28;20044;-73
2021/11/27 01:30:10;;;;;;;;;;;;;;;3.90;100.00;98034.50;6298699;28;20124;-73
2021/11/27 01:33:12;;;;;;;9.52;6.57;;;;;;;3.90;100.00;98034.50;6299364;28;20377;-74
2021/11/27 01:36:12;;;;;;;8.05;5.35;;;;;;;3.84;100.00;98038.31;6299307;28;20049;-73
2021/11/27 01:39:14;;;;;;;6.85;4.85;;;;;;;3.89;100.00;98032.81;6298082;28;20052;-73
2021/11/27 01:42:15;;;;;;;9.07;5.82;;;;;;;3.73;100.00;98025.28;6297588;28;20040;-73
2021/11/27 01:45:18;;;;;;;9.13;5.60;;;;;;;3.71;100.00;98025.38;6296829;28;20045;-73
2021/11/27 01:48:21;;;;;;;7.88;6.30;;;;;;;3.71;100.00;98020.22;6318772;28;20047;-73
2021/11/27 01:51:23;;;;;;;8.05;5.75;;;;;;;3.55;100.00;98025.53;6322965;28;20071;-73
2021/11/27 01:54:24;;;;;;;8.30;5.63;;;;;;;3.43;100.00;98022.00;6305247;28;20052;-73
2021/11/27 01:57:25;;;;;;;13.13;7.22;;;;;;;3.39;100.00;98027.44;6308152;28;20048;-72
2021/11/27 02:00:29;;;;;;;11.02;7.15;;;;;;;3.36;100.00;98046.53;6297789;28;20044;-71
2021/11/27 02:03:30;;;;;;;12.32;8.02;;;;;;;3.40;100.00;98049.75;6296469;28;20072;-74
2021/11/27 02:06:33;;;;;;;14.45;9.43;;;;;;;3.29;100.00;98052.97;6297526;28;20040;-72
2021/11/27 02:09:37;;;;;;;13.70;9.63;;;;;;;3.29;100.00;98057.31;6330141;28;20076;-74
2021/11/27 02:12:38;;;;;;;14.85;9.75;;;;;;;3.31;100.00;98064.03;6297401;28;20041;-74
2021/11/27 02:15:39;;;;;;;15.13;9.97;;;;;;;3.13;100.00;98052.28;6297373;28;20044;-73
2021/11/27 02:18:40;;;;;;;16.10;10.23;;;;;;;3.25;100.00;98063.59;6319470;28;20301;-73
2021/11/27 02:21:44;;;;;;;13.85;9.10;;;;;;;3.13;100.00;98068.59;6322500;28;20488;-74
2021/11/27 02:24:45;;;;;;;12.63;8.07;;;;;;;3.13;100.00;98073.75;6321279;28;20412;-71
2021/11/27 02:27:49;;;;;;;13.23;8.32;;;;;;;2.98;100.00;98066.97;6320996;28;20052;-72
2021/11/27 02:30:50;;;;;;;11.23;7.57;;;;;;;2.74;100.00;98064.97;6320908;28;20040;-73
2021/11/27 02:33:52;;;;;;;12.68;8.55;;;;;;;2.74;100.00;98064.97;6322300;28;20047;-73
2021/11/27 02:36:58;;;;;;;13.48;8.80;;;;;;;2.73;100.00;98063.31;6320816;28;20481;-74
2021/11/27 02:39:59;;;;;;;11.68;7.72;;;;;;;2.66;100.00;98064.59;6319944;28;20116;-72
2021/11/27 02:43:01;;;;;;;11.50;7.57;;;;;;;2.80;100.00;98084.34;6311419;28;20048;-72
2021/11/27 02:46:02;;;;;;;9.88;6.88;;;;;;;2.78;100.00;98074.16;6322863;28;20077;-71
2021/11/27 02:49:05;;;;;;;10.32;7.38;;;;;;;2.77;100.00;98076.81;6322770;28;20051;-71
2021/11/27 02:52:07;;;;;;;9.77;6.82;;;;;;;2.60;100.00;98072.69;6321375;28;20036;-71
2021/11/27 02:55:09;;;;;;;8.70;6.33;;;;;;;2.55;100.00;98072.97;6305724;28;20044;-71
2021/11/27 02:58:10;;;;;;;10.50;7.00;;;;;;;2.65;100.00;98077.56;6278814;28;20690;-71
2021/11/27 03:01:12;;;;;;;10.15;7.25;;;;;;;2.74;100.00;98075.28;6278636;28;20051;-72
2021/11/27 03:04:14;;;;;;;9.77;6.90;;;;;;;2.63;100.00;98085.38;6297047;28;20040;-73
2021/11/27 03:07:16;;;;;;;10.88;7.47;;;;;;;2.60;100.00;98083.81;6297550;28;20745;-73
2021/11/27 03:10:19;;;;;;;9.43;6.88;;;;;;;2.53;100.00;98081.69;6296916;28;20082;-71
2021/11/27 03:13:29;;;;;;;9.95;6.85;;;;;;;2.55;100.00;98090.16;6296014;28;20105;-71
2021/11/27 03:16:34;;;;;;;9.95;7.50;;;;;;;2.58;100.00;98079.69;6295573;28;20133;-73
2021/11/27 03:19:39;;;;;;;11.80;7.55;;;;;;;2.55;100.00;98085.84;6297430;28;20044;-73
2021/11/27 03:22:40;;;;;;;11.70;7.57;;;;;;;2.56;100.00;98086.69;6295833;28;20504;-71
2021/11/27 03:25:41;;;;;;;11.13;7.80;;;;;;;2.66;100.00;98077.47;6295733;28;20086;-73
2021/11/27 03:28:44;;;;;;;10.75;7.63;;;;;;;2.58;100.00;98083.09;6295512;28;20029;-73
2021/11/27 03:31:45;;;;;;;10.98;7.40;;;;;;;2.54;100.00;98081.59;6295470;28;20488;-73
2021/11/27 03:34:48;;;;;;;10.88;7.68;;;;;;;2.44;100.00;98089.97;6278376;28;20052;-73
2021/11/27 03:37:49;;;;;;;12.00;8.50;;;;;;;2.34;100.00;98090.50;6306492;28;20044;-73
2021/11/27 03:40:50;;;;;;;12.07;8.23;;;;;;;2.44;100.00;98097.69;6320952;28;20460;-72
2021/11/27 03:43:51;;;;;;;12.68;8.52;;;;;;;2.29;100.00;98091.72;6320781;28;20044;-71
2021/11/27 03:46:52;;;;;;;12.43;8.20;;;;;;;2.30;100.00;98106.22;6277778;28;20057;-71
2021/11/27 03:49:54;;;;;;;12.20;8.15;;;;;;;2.30;100.00;98114.75;6294470;28;20490;-71
2021/11/27 03:52:54;;;;;;;15.35;9.40;;;;;;;2.45;100.00;98122.50;6295783;28;20090;-71
2021/11/27 03:55:56;;;;;;;15.70;10.02;;;;;;;2.48;100.00;98124.91;6296272;28;20072;-71
2021/11/27 03:59:01;;;;;;;14.90;9.98;;;;;;;2.40;100.00;98122.78;6319568;28;20032;-73
2021/11/27 04:02:03;;;;;;;12.85;9.02;;;;;;;2.33;100.00;98136.94;6319617;28;20036;-71
2021/11/27 04:05:04;;;;;;;17.17;10.00;;;;;;;2.32;100.00;98148.97;6320680;28;20392;-71
2021/11/27 04:08:05;;;;;;;15.10;10.18;;;;;;;2.28;100.00;98149.22;6320638;28;20048;-71
2021/11/27 04:11:07;;;;;;;18.45;10.70;;;;;;;2.29;100.00;98154.31;6302517;28;20472;-73
2021/11/27 04:14:08;;;;;;;17.13;10.18;;;;;;;2.31;100.00;98144.75;6319418;28;20416;-72
2021/11/27 04:17:09;;;;;;;15.77;9.57;;;;;;;2.35;100.00;98148.81;6320396;28;20396;-71
2021/11/27 04:20:10;;;;;;;15.50;9.70;;;;;;;2.18;100.00;98154.91;6321047;28;20040;-72
2021/11/27 04:23:12;;;;;;;17.70;9.90;;;;;;;2.16;100.00;98161.06;6324211;28;20102;-71
2021/11/27 04:26:14;;;;;;;17.95;10.07;;;;;;;2.13;100.00;98169.78;6320992;28;20539;-72
2021/11/27 04:29:14;;;;;;;15.97;10.23;;;;;;;2.15;100.00;98167.13;6305238;28;20040;-73
2021/11/27 04:32:16;;;;;;;19.17;10.93;;;;;;;2.17;100.00;98173.00;6324065;28;20085;-72
2021/11/27 04:35:17;;;;;;;18.50;11.45;;;;;;;2.15;100.00;98180.81;6325162;28;20043;-71
2021/11/27 04:38:18;;;;;;;18.05;10.73;;;;;;;2.18;100.00;98179.81;6323821;28;20040;-73
2021/11/27 04:41:20;;;;;;;19.50;11.13;;;;;;;2.05;100.00;98177.09;6323759;28;20467;-73
2021/11/27 04:44:21;;;;;;;18.30;11.35;;;;;;;2.03;100.00;98186.66;6307076;28;20048;-73
2021/11/27 04:47:22;;;;;;;20.80;11.65;;;;;;;2.08;100.00;98182.09;6294963;28;20119;-71
2021/11/27 04:50:23;;;;;;;21.55;11.55;;;;;;;2.07;100.00;98177.84;6299266;28;20056;-73
2021/11/27 04:53:24;;;;;;;19.42;11.05;;;;;;;2.01;100.00;98175.63;6316145;28;20480;-71
2021/11/27 04:56:25;;;;;;;19.70;10.80;;;;;;;1.95;100.00;98170.81;6306469;28;20055;-73
2021/11/27 04:59:26;;;;;;;19.27;11.43;;;;;;;1.93;100.00;98178.59;6324427;28;20494;-73
2021/11/27 05:02:27;;;;;;;18.00;10.05;;;;;;;2.04;100.00;98179.75;6311495;28;20040;-73
2021/11/27 05:05:28;;;;;;;20.13;11.77;;;;;;;1.94;100.00;98174.31;6306003;28;20098;-74
2021/11/27 05:08:29;;;;;;;18.60;10.00;;;;;;;1.99;100.00;98170.53;6323506;28;20055;-72
2021/11/27 05:11:30;;;;;;;20.20;11.27;;;;;;;1.99;100.00;98178.25;6306997;28;20068;-73
2021/11/27 05:14:30;;;;;;;20.95;10.55;;;;;;;2.02;100.00;98177.28;6325056;28;20040;-73
2021/11/27 05:17:31;;;;;;;22.38;11.43;;;;;;;2.05;100.00;98191.72;6311041;28;20052;-71
2021/11/27 05:20:32;;;;;;;17.08;10.43;;;;;;;2.08;100.00;98205.25;6298521;28;20044;-73
2021/11/27 05:23:33;;;;;;;19.05;11.05;;;;;;;2.11;100.00;98199.91;6281863;28;20040;-71
2021/11/27 05:26:35;;;;;;;18.23;10.55;;;;;;;2.07;100.00;98197.59;6299095;28;20135;-71
2021/11/27 05:29:35;;;;;;;20.42;11.15;;;;;;;2.13;100.00;98198.06;6299329;28;20040;-71
2021/11/27 05:35:38;;;;;;;20.17;11.75;;;;;;;2.11;100.00;98210.19;6298520;28;20059;-71
2021/11/27 05:38:39;;;;;;;18.25;10.52;;;;;;;2.17;100.00;98209.84;6281380;28;20069;-71
2021/11/27 05:41:40;;;;;;;24.15;12.05;;;;;;;2.22;100.00;98219.88;6297893;28;20055;-71
2021/11/27 05:44:45;;;;;;;20.55;11.57;;;;;;;2.18;100.00;98216.69;6299134;28;20045;-73
2021/11/27 05:47:46;;;;;;;23.80;12.55;;;;;;;1.98;100.00;98222.91;6299850;28;20041;-72
2021/11/27 05:50:47;;;;;;;21.20;12.57;;;;;;;2.04;100.00;98223.47;6297643;28;20143;-71
2021/11/27 05:53:48;;;;;;;23.90;12.13;;;;;;;2.12;100.00;98223.88;6298792;28;20048;-72
2021/11/27 05:56:48;;;;;;;23.83;11.82;;;;;;;2.16;100.00;98233.09;6297438;28;20041;-71
2021/11/27 05:59:49;;;;;;;23.20;11.90;;;;;;;2.14;100.00;98240.06;6298627;28;20039;-72
2021/11/27 06:02:50;;;;;;;25.63;12.23;;;;;;;2.19;100.00;98240.66;6298742;28;20071;-71
2021/11/27 06:05:51;;;;;;;21.85;12.00;;;;;;;2.17;100.00;98247.63;6298482;28;20045;-71
2021/11/27 06:08:51;;;;;;;23.98;12.25;;;;;;;2.09;100.00;98245.47;6298411;28;20064;-73
2021/11/27 06:11:52;;;;;;;23.20;12.27;;;;;;;2.15;100.00;98247.72;6298096;28;20040;-73
2021/11/27 06:14:53;;;;;;;23.20;12.98;;;;;;;2.19;100.00;98251.78;6297018;28;20045;-71
2021/11/27 06:17:54;;;;;;;22.80;12.70;;;;;;;2.19;100.00;98259.50;6296576;28;20486;-71
2021/11/27 06:20:54;;;;;;;23.45;12.57;;;;;;;2.05;100.00;98264.56;6297348;28;20044;-71
2021/11/27 06:23:58;;;;;;;24.08;13.55;;;;;;;2.19;100.00;98272.38;6297680;28;20044;-72
2021/11/27 06:26:59;;;;;;;24.15;13.50;;;;;;;2.25;100.00;98272.94;6297910;28;20053;-74
2021/11/27 06:30:00;;;;;;;24.95;13.82;;;;;;;2.20;100.00;98281.75;6301516;28;20109;-72
2021/11/27 06:33:00;;;;;;;24.60;13.30;;;;;;;2.17;100.00;98296.53;6321604;28;20476;-73
2021/11/27 06:36:01;;;;;;;23.27;12.98;;;;;;;2.24;100.00;98305.56;6323125;28;20046;-73
2021/11/27 06:39:03;;;;;;;21.65;12.98;;;;;;;2.04;100.00;98321.25;6322880;28;20419;-73
2021/11/27 06:42:05;;;;;;;25.63;12.98;;;;;;;2.14;100.00;98322.41;6295801;28;20048;-72
2021/11/27 06:45:06;;;;;;;21.95;12.80;;;;;;;2.15;100.00;98330.06;6297664;28;20456;-72
2021/11/27 06:48:07;;;;;;;23.40;12.73;;;;;;;2.17;100.00;98345.41;6307878;28;20504;-72
2021/11/27 06:51:08;;;;;;;23.00;12.90;;;;;;;2.07;100.00;98339.09;6300091;28;20048;-72
2021/11/27 06:54:08;;;;;;;25.13;13.27;;;;;;;2.07;100.00;98341.69;6302284;28;20036;-72
2021/11/27 06:57:10;;;;;;;19.08;12.20;;;;;;;2.03;100.00;98347.91;6321713;28;20472;-72
2021/11/27 07:00:12;;;;;;;25.45;13.60;;;;;;;2.06;100.00;98347.72;6320539;28;20080;-72
2021/11/27 07:03:13;;;;;;;22.60;12.90;;;;;;;2.01;100.00;98342.81;6335448;27;20045;-72
2021/11/27 07:06:14;;;;;;;25.73;13.80;;;;;;;1.97;100.00;98331.84;6314241;28;20131;-72
2021/11/27 07:09:15;;;;;;;29.65;14.55;;;;;;;2.02;100.00;98331.63;6320193;28;20040;-72
2021/11/27 07:12:16;;;;;;;22.60;13.35;;;;;;;2.11;100.00;98331.13;6321818;28;20047;-71
2021/11/27 07:15:17;;;;;;;27.83;15.50;;;;;;;2.11;100.00;98333.69;6287082;28;20503;-72
2021/11/27 07:18:18;;;;;;;24.00;13.90;;;;;;;2.04;100.00;98339.25;6320074;28;20040;-72
2021/11/27 07:21:19;;;;;;;24.02;13.73;;;;;;;2.10;100.00;98344.91;6320166;28;20078;-72
2021/11/27 07:24:20;;;;;;;24.63;13.32;;;;;;;2.07;100.00;98355.38;6315021;28;20041;-72
2021/11/27 07:27:21;;;;;;;29.65;14.73;;;;;;;2.14;100.00;98354.13;6295875;28;20052;-71
2021/11/27 07:30:22;;;;;;;26.70;13.38;;;;;;;2.18;100.00;98365.94;6278093;28;20089;-72
2021/11/27 07:33:23;;;;;;;24.85;14.20;;;;;;;2.15;100.00;98376.38;6294807;28;20385;-72
2021/11/27 07:36:23;;;;;;;25.42;13.68;;;;;;;2.18;100.00;98375.38;6294871;28;20071;-73
2021/11/27 07:39:24;;;;;;;27.38;14.85;;;;;;;2.20;100.00;98371.81;6301567;28;20051;-73
2021/11/27 07:42:25;;;;;;;26.63;15.23;;;;;;;2.24;100.00;98385.34;6309393;28;20049;-72
2021/11/27 07:45:27;;;;;;;28.08;14.95;;;;;;;2.22;100.00;98380.28;6293430;28;20396;-73
2021/11/27 07:48:31;;;;;;;26.65;13.15;;;;;;;2.20;100.00;98376.97;6278130;28;20041;-72
2021/11/27 07:51:32;;;;;;;27.50;13.93;;;;;;;2.26;100.00;98372.38;6278153;28;20524;-72
2021/11/27 07:54:33;;;;;;;27.67;15.05;;;;;;;2.33;100.00;98377.13;6294617;28;20044;-72
2021/11/27 07:57:33;;;;;;;31.63;17.08;;;;;;;2.42;100.00;98380.94;6300244;28;20058;-72
2021/11/27 08:00:34;;;;;;;32.75;16.63;;;;;;;2.45;100.00;98377.38;6321340;28;20062;-72
2021/11/27 08:03:35;;;;;;;30.38;14.63;;;;;;;2.36;100.00;98373.56;6325778;28;20047;-73
2021/11/27 08:06:35;;;;;;;26.92;14.68;;;;;;;2.34;100.00;98380.53;6307723;28;20040;-71
2021/11/27 08:09:36;;;;;;;27.27;14.57;;;;;;;2.42;100.00;98380.94;6324380;28;20072;-72
2021/11/27 08:12:37;;;;;;;31.40;16.02;;;;;;;2.29;100.00;98380.78;6325527;28;20048;-72
2021/11/27 08:15:38;;;;;;;28.25;14.43;;;;;;;2.33;100.00;98389.19;6323897;28;20036;-72
2021/11/27 08:18:39;;;;;;;27.02;14.93;;;;;;;2.35;100.00;98388.19;6325503;28;20101;-73
2021/11/27 08:21:39;;;;;;;37.22;18.50;;;;;;;2.40;100.00;98381.03;6324913;28;20044;-71
2021/11/27 08:24:40;;;;;;;28.25;15.07;;;;;;;2.46;100.00;98390.16;6318001;28;20090;-73
2021/11/27 08:27:41;;;;;;;29.17;14.95;;;;;;;2.61;100.00;98393.63;6325666;28;20135;-72
2021/11/27 08:30:42;;;;;;;32.45;16.35;;;;;;;2.76;100.00;98391.97;6325798;28;20051;-73
2021/11/27 08:33:43;;;;;;;29.25;14.73;;;;;;;2.74;100.00;98389.50;6311470;28;20041;-73
2021/11/27 08:36:44;;;;;;;36.15;17.25;;;;;;;2.83;100.00;98383.00;6303636;28;20361;-73
2021/11/27 08:39:44;;;;;;;33.38;18.25;;;;;;;2.91;100.00;98396.28;6296077;28;20060;-72
2021/11/27 08:42:45;;;;;;;33.88;18.13;;;;;;;2.89;100.00;98403.25;6299066;28;20199;-73
2021/11/27 08:45:48;;;;;;;35.70;17.35;;;;;;;2.93;100.00;98419.38;6309334;28;20119;-74
2021/11/27 08:48:53;;;;;;;27.15;15.27;;;;;;;2.90;100.00;98422.13;6289870;28;20044;-73
2021/11/27 08:51:53;;;;;;;35.28;18.48;;;;;;;2.82;100.00;98425.09;6300202;28;20055;-73
2021/11/27 08:54:54;;;;;;;31.52;16.42;;;;;;;2.84;100.00;98431.00;6306364;28;20052;-73
2021/11/27 08:57:55;;;;;;;35.70;17.25;;;;;;;2.80;100.00;98442.38;6324777;28;20496;-73
2021/11/27 09:00:56;;;;;;;32.17;16.67;;;;;;;2.83;100.00;98437.91;6312781;28;20525;-72
2021/11/27 09:03:57;;;;;;;37.83;20.00;;;;;;;2.78;100.00;98444.22;6301286;28;20091;-73
2021/11/27 09:06:58;;;;;;;40.53;21.42;;;;;;;2.72;100.00;98449.69;6321993;28;20040;-73
2021/11/27 09:09:58;;;;;;;38.58;19.48;;;;;;;2.89;100.00;98443.66;6324580;28;20048;-73
2021/11/27 09:12:59;;;;;;;33.33;17.77;;;;;;;2.88;100.00;98441.97;6324459;28;20047;-73
2021/11/27 09:16:00;;;;;;;37.85;19.35;;;;;;;2.90;100.00;98440.16;6324340;28;20450;-73
2021/11/27 09:19:06;;;;;;;29.25;15.60;;;;;;;2.95;100.00;98443.31;6306179;28;20123;-73
2021/11/27 09:22:08;;;;;;;34.00;16.95;;;;;;;3.10;100.00;98447.59;6323887;28;20379;-73
2021/11/27 09:25:10;;;;;;;28.85;15.70;;;;;;;3.11;100.00;98454.44;6323400;28;20068;-72
2021/11/27 09:28:12;;;;;;;28.67;15.35;;;;;;;3.18;100.00;98453.16;6324420;28;20044;-73
2021/11/27 09:31:13;;;;;;;33.50;17.40;;;;;;;3.32;100.00;98461.88;6306417;28;20046;-72
2021/11/27 09:34:22;;;;;;;34.22;17.08;;;;;;;3.38;100.00;98451.22;6324161;28;20052;-72
2021/11/27 09:37:24;;;;;;;28.60;15.88;;;;;;;3.38;100.00;98457.19;6323043;28;20055;-72
2021/11/27 09:40:25;;;;;;;31.00;16.20;;;;;;;3.18;100.00;98460.88;6323505;28;20051;-72
2021/11/27 09:43:25;;;;;;;27.52;15.50;;;;;;;3.26;100.00;98459.63;6322177;28;20040;-73
2021/11/27 09:46:28;;;;;;;34.95;16.20;;;;;;;3.29;100.00;98446.56;6323353;28;20046;-73
2021/11/27 09:49:29;;;;;;;31.85;16.60;;;;;;;3.45;100.00;98446.53;6356913;27;20117;-73
2021/11/27 09:52:31;;;;;;;38.87;18.30;;;;;;;3.45;100.00;98452.50;6323703;28;20044;-73
2021/11/27 09:55:31;;;;;;;37.63;17.33;;;;;;;3.43;100.00;98449.19;6305763;28;20059;-73
2021/11/27 09:58:35;;;;;;;31.98;16.67;;;;;;;3.54;100.00;98453.72;6322934;28;20476;-73
2021/11/27 10:01:37;;;;;;;35.50;19.98;;;;;;;3.53;100.00;98455.47;6322267;28;20055;-71
2021/11/27 10:04:42;;;;;;;38.95;19.23;;;;;;;3.58;100.00;98443.16;6322747;28;20047;-71
2021/11/27 10:07:46;;;;;;;29.98;15.32;;;;;;;3.58;100.00;98448.31;6323145;28;20087;-72
2021/11/27 10:10:50;;;;;;;28.80;14.50;;;;;;;3.50;100.00;98454.81;6305335;28;20480;-73
2021/11/27 10:13:52;;;;;;;31.75;16.33;;;;;;;3.61;100.00;98462.78;6322159;28;20056;-73
2021/11/27 10:16:58;;;;;;;24.65;13.50;;;;;;;3.67;100.00;98462.44;6315293;28;20049;-73
2021/11/27 10:20:02;;;;;;;34.33;18.42;;;;;;;3.47;100.00;98473.06;6304523;28;20056;-72
2021/11/27 10:23:03;;;;;;;28.50;14.95;;;;;;;3.43;100.00;98474.97;6321215;28;20062;-73
2021/11/27 10:26:04;;;;;;;41.35;21.27;;;;;;;3.57;100.00;98476.78;6304320;28;20488;-72
2021/11/27 10:29:11;;;;;;;36.92;18.75;;;;;;;3.59;100.00;98468.00;6301365;28;20036;-73
2021/11/27 10:32:19;;;;;;;31.88;16.63;;;;;;;3.70;100.00;98467.38;6299721;28;20484;-73
2021/11/27 10:35:20;;;;;;;33.70;17.80;;;;;;;3.60;100.00;98472.28;6304609;28;20040;-73
2021/11/27 10:38:33;;;;;;;24.20;13.57;;;;;;;3.89;100.00;98469.75;6297009;28;20071;-73
2021/11/27 10:41:37;;;;;;;31.05;16.33;;;;;;;3.98;100.00;98474.34;6295764;28;20500;-73
2021/11/27 10:44:38;;;;;;;25.50;12.48;;;;;;;4.09;100.00;98462.56;6295780;28;20553;-73
2021/11/27 10:47:40;;;;;;;33.85;15.73;;;;;;;4.50;100.00;98465.22;6296944;28;20041;-73
2021/11/27 10:50:47;;;;;;;29.88;15.52;;;;;;;4.79;100.00;98478.91;6295616;28;20037;-72
2021/11/27 10:53:56;;;;;;;22.98;12.77;;;;;;;4.91;100.00;98479.91;6296937;28;20036;-70
2021/11/27 10:56:57;;;;;;;28.65;15.68;;;;;;;4.93;100.00;98465.13;6296560;28;20127;-72
2021/11/27 11:00:00;;;;;;;30.52;17.88;;;;;;;4.88;100.00;98477.53;6296607;28;20630;-72
2021/11/27 11:03:03;;;;;;;32.60;18.15;;;;;;;5.11;99.94;98480.41;6296458;28;20067;-72
2021/11/27 11:06:21;;;;;;;;;;;;;;;5.39;99.58;98489.81;6296820;28;20135;-74
2021/11/27 11:09:22;;;;;;;28.38;14.77;;;;;;;5.03;100.00;98480.91;6296430;28;19927;-71
2021/11/27 11:12:41;;;;;;;27.70;15.80;;;;;;;4.94;100.00;98495.22;6296261;28;20405;-71
2021/11/27 11:15:47;;;;;;;33.60;16.90;;;;;;;4.74;100.00;98501.63;6296214;28;20119;-73
2021/11/27 11:18:51;;;;;;;29.83;15.98;;;;;;;4.51;100.00;98494.44;6296321;28;20131;-73
2021/11/27 11:22:13;;;;;;;28.92;15.50;;;;;;;4.50;100.00;98498.78;6278804;28;20102;-73
2021/11/27 11:25:14;;;;;;;30.20;15.20;;;;;;;4.69;100.00;98490.75;6295065;28;20037;-73
2021/11/27 11:28:19;;;;;;;28.60;16.60;;;;;;;4.61;100.00;98492.97;6294776;28;20044;-73
2021/11/27 11:31:27;;;;;;;28.35;16.05;;;;;;;4.60;100.00;98489.56;6295427;28;20047;-73
2021/11/27 11:34:27;;;;;;;28.02;15.10;;;;;;;4.58;100.00;98480.25;6277979;28;20052;-73
2021/11/27 11:37:28;;;;;;;29.55;15.55;;;;;;;4.70;100.00;98489.81;6296418;28;20503;-72
2021/11/27 11:40:30;;;;;;;29.52;16.95;;;;;;;4.59;100.00;98490.50;6294724;28;20068;-73
2021/11/27 11:43:31;;;;;;;26.50;15.10;;;;;;;4.54;100.00;98502.84;6295828;28;20037;-72
2021/11/27 11:46:32;;;;;;;42.03;21.30;;;;;;;4.64;100.00;98509.13;6295983;28;20052;-72
2021/11/27 11:49:33;;;;;;;47.30;21.55;;;;;;;4.90;100.00;98511.84;6278089;28;20052;-73
2021/11/27 11:53:22;;;;;;;37.40;18.90;;;;;;;5.13;100.00;98507.00;6318597;28;20110;-74
2021/11/27 11:56:36;;;;;;;35.17;17.60;;;;;;;5.23;100.00;98500.31;6316047;28;20083;-73
2021/11/27 11:59:42;;;;;;;28.63;15.07;;;;;;;5.13;100.00;98499.25;6319515;28;20043;-72
2021/11/27 12:02:47;;;;;;;41.85;20.08;;;;;;;5.16;100.00;98493.88;6303332;28;20106;-72
2021/11/27 12:05:53;;;;;;;37.40;18.88;;;;;;;5.25;100.00;98494.13;6320804;28;20403;-71
2021/11/27 12:09:00;;;;;;;30.67;15.85;;;;;;;5.23;100.00;98495.16;6319588;28;20051;-73
2021/11/27 12:12:17;;;;;;;25.60;14.48;;;;;;;5.23;100.00;98487.38;6319252;28;20071;-73
2021/11/27 12:15:28;;;;;;;29.20;16.15;;;;;;;5.33;100.00;98477.25;6320989;28;20074;-73
2021/11/27 12:18:29;;;;;;;29.80;15.45;;;;;;;5.24;100.00;98489.84;6302904;28;20047;-74
2021/11/27 12:21:30;;;;;;;23.85;14.48;;;;;;;5.46;100.00;98498.84;6319427;28;20143;-71
2021/11/27 12:24:31;;;;;;;27.67;15.88;;;;;;;5.50;100.00;98487.38;6302772;28;20044;-72
2021/11/27 12:28:03;;;;;;;22.70;12.75;;;;;;;5.67;100.00;98475.06;6320363;28;20048;-72
2021/11/27 12:31:07;;;;;;;29.00;15.10;;;;;;;5.93;100.00;98488.84;6319137;28;20128;-72
2021/11/27 12:34:09;;;;;;;31.75;16.30;;;;;;;5.82;100.00;98502.53;6320479;28;20044;-72
2021/11/27 12:37:24;;;;;;;28.80;15.00;;;;;;;5.83;100.00;98515.38;6320404;28;20093;-72
2021/11/27 12:40:50;;;;;;;28.15;15.50;;;;;;;6.20;100.00;98520.72;6319223;28;20040;-73
2021/11/27 12:44:11;;;;;;;26.33;14.13;;;;;;;6.36;99.36;98510.16;6324556;28;20119;-73
2021/11/27 12:47:11;;;;;;;24.60;13.88;;;;;;;6.52;99.31;98494.38;6323760;28;20050;-73
2021/11/27 12:50:16;;;;;;;24.98;14.15;;;;;;;6.54;96.89;98489.09;6325013;28;20380;-73
2021/11/27 12:53:17;;;;;;;23.17;14.00;;;;;;;6.50;98.01;98495.41;6324864;28;20036;-73
2021/11/27 12:56:18;;;;;;;25.33;13.73;;;;;;;6.03;99.74;98521.84;6323387;28;20032;-73
2021/11/27 12:59:24;;;;;;;24.48;14.15;;;;;;;5.74;100.00;98522.91;6324655;28;20050;-73
2021/11/27 13:02:25;;;;;;;31.45;16.02;;;;;;;5.79;100.00;98513.09;6323399;28;20052;-73
2021/11/27 13:05:32;;;;;;;25.27;14.00;;;;;;;5.85;100.00;98515.28;6306494;28;20097;-73
2021/11/27 13:08:34;;;;;;;27.15;14.93;;;;;;;6.01;100.00;98505.59;6324370;28;20036;-73
2021/11/27 13:11:40;;;;;;;26.90;14.98;;;;;;;6.09;100.00;98512.00;6324185;28;20047;-72
2021/11/27 13:14:41;;;;;;;22.85;13.13;;;;;;;6.19;100.00;98507.88;6322969;28;20089;-73
2021/11/27 13:17:42;;;;;;;32.25;15.35;;;;;;;6.25;100.00;98495.31;6322849;28;20036;-72
2021/11/27 13:20:50;;;;;;;27.30;14.82;;;;;;;6.32;100.00;98471.59;6322642;28;20115;-72
2021/11/27 13:23:51;;;;;;;27.67;15.73;;;;;;;6.40;100.00;98458.94;6321101;28;20043;-72
2021/11/27 13:26:52;;;;;;;27.38;13.30;;;;;;;6.35;100.00;98463.63;6321056;28;20059;-73
2021/11/27 13:30:15;;;;;;;28.67;15.32;;;;;;;6.31;100.00;98473.34;6320903;28;20481;-72
2021/11/27 13:33:15;;;;;;;35.50;21.30;;;;;;;6.31;100.00;98485.50;6320873;28;20043;-74
2021/11/27 13:36:27;;;;;;;23.50;12.80;;;;;;;6.14;100.00;98486.63;6338171;28;20457;-72
2021/11/27 13:39:33;;;;;;;22.50;13.57;;;;;;;5.95;100.00;98484.44;6319181;28;20036;-73
2021/11/27 13:42:34;;;;;;;25.02;14.13;;;;;;;5.80;100.00;98494.03;6318232;27;20120;-74
2021/11/27 13:45:35;;;;;;;23.45;13.95;;;;;;;5.70;100.00;98498.97;6296956;28;20047;-72
2021/11/27 13:48:36;;;;;;;28.05;16.40;;;;;;;5.68;100.00;98497.41;6297761;28;20310;-72
2021/11/27 13:51:37;;;;;;;28.88;18.02;;;;;;;5.56;100.00;98494.72;6315159;28;20040;-73
2021/11/27 13:54:38;;;;;;;27.20;16.40;;;;;;;5.52;100.00;98502.75;6279158;28;20430;-73
2021/11/27 13:57:44;;;;;;;23.25;13.45;;;;;;;5.55;100.00;98500.81;6312254;28;20046;-72
2021/11/27 14:00:47;;;;;;;27.05;14.98;;;;;;;5.41;100.00;98500.88;6321612;28;20044;-73
2021/11/27 14:03:47;;;;;;;30.95;17.38;;;;;;;5.37;100.00;98489.88;6322855;28;20055;-73
2021/11/27 14:06:59;;;;;;;29.45;16.85;;;;;;;5.34;100.00;98490.09;6322766;28;20032;-72
2021/11/27 14:10:00;;;;;;;31.15;16.83;;;;;;;5.39;100.00;98482.03;6322753;28;20047;-72